Airfield :
LOGIN :

Register | Disclaimer

   EN    FR    IT 

 










Legend :    VFR   Marginal VFR   IFR   Intensive IFR   Very Intensive IFR
Visi :
Ceiling :
>= 8 km
>= 3000ft
5 to 8 km
1000 to 3000 ft
1500m to 5 km
500 to 1000 ft
800 to 1500m
200 to 500 ft
< 800m
< 200 ft
Symbols :   Thunderstorms  Fog  Heavy snow  Heavy precipitations  Wind > 20 kt
SIGMETs :     Misc.  Thunderstorms  Icing  Turbulence  Mountain Waves  Volcanic Ashes






- Airport Elevation : -11 ft
- IATA code : AMS


EHAM - Amsterdam Schiphol

CURRENT METAR :
  • 250525Z 35008KT 320V020 CAVOK 13/11 Q1033 NOSIG

EXPIRED METARs :
  • 250455Z 32007KT CAVOK 12/11 Q1032 NOSIG
  • 250425Z 30004KT CAVOK 11/09 Q1032 NOSIG
  • 250355Z 31004KT 280V340 CAVOK 10/09 Q1032 NOSIG
  • 250325Z 32006KT CAVOK 11/10 Q1032 NOSIG
  • 250255Z 30005KT CAVOK 11/10 Q1032 NOSIG

TAF TAF EHAM
Valid from the 25 at 06:00 until the 26 at 12:00 UTC


250456Z 2506/2612 30007KT 9999 FEW018
BECMG 2507/2510 33010KT
BECMG 2518/2521 VRB03KT
PROB30
TEMPO 2601/2606 4000 MIFG BR
BECMG 2605/2608 18006KT



MET'MAP, your aeronautical weather chart ! - Copyright ORBIFLY December 2007 - Disclaimer

ORBIFLY MET'MAP TEAM :

Programming & Development : Alexandra Zaïnal
Concept & original design : Baudouin d'Aumeries
Assistance for programming : Marc-Olivier Méhu
Technical & hardware support : Manuel Goepfert

Contact : metmap@orbifly.com




SOURCES & CREDITS :

   NOAA